Time;durP1;ratioP1;P1;durP2;ratioP2;P2;SDS_P1;SDS_P2;PMS_P1;PMS_P2;Temp;Humidity;BMP_temperature;BMP_pressure;BME280_temperature;BME280_humidity;BME280_pressure;Samples;Min_cycle;Max_cycle;Signal;HPM_P1;HPM_P2
2023/05/21 00:00:58;;;;;;;8.07;7.38;;;14.80;99.90;;;;;;5123193;28;20393;-81
2023/05/21 00:03:25;;;;;;;8.25;7.55;;;14.80;99.90;;;;;;5094794;28;20382;-81
2023/05/21 00:05:51;;;;;;;9.00;8.20;;;14.70;99.90;;;;;;5112798;28;20465;-81
2023/05/21 00:08:17;;;;;;;9.20;8.40;;;14.80;99.90;;;;;;5128505;28;20894;-81
2023/05/21 00:10:42;;;;;;;9.20;8.30;;;14.80;99.90;;;;;;5133099;28;20384;-80
2023/05/21 00:13:09;;;;;;;8.90;8.00;;;14.80;99.90;;;;;;5098643;28;20418;-80
2023/05/21 00:15:35;;;;;;;9.10;8.30;;;14.70;99.90;;;;;;5114560;28;20385;-81
2023/05/21 00:18:00;;;;;;;8.57;7.88;;;14.70;99.90;;;;;;5133515;28;20426;-81
2023/05/21 00:20:28;;;;;;;11.67;10.57;;;14.70;99.90;;;;;;5115138;28;20436;-81
2023/05/21 00:22:53;;;;;;;11.15;10.15;;;14.90;99.90;;;;;;5117259;28;20392;-80
2023/05/21 00:25:19;;;;;;;11.00;10.00;;;15.00;99.90;;;;;;5121404;28;20416;-81
2023/05/21 00:27:45;;;;;;;11.40;10.30;;;15.00;99.90;;;;;;5114915;28;20395;-81
2023/05/21 00:30:10;;;;;;;12.00;10.60;;;15.00;99.90;;;;;;5133200;28;20483;-80
2023/05/21 00:32:36;;;;;;;11.30;10.30;;;14.90;99.90;;;;;;5132498;28;20403;-80
2023/05/21 00:35:02;;;;;;;16.05;14.55;;;14.90;99.90;;;;;;5132577;28;20369;-81
2023/05/21 00:37:33;;;;;;;15.93;14.50;;;15.10;99.90;;;;;;5131643;28;20487;-81
2023/05/21 00:39:59;;;;;;;13.98;12.68;;;15.30;99.90;;;;;;5132535;28;20436;-80
2023/05/21 00:42:26;;;;;;;13.77;12.38;;;15.30;99.90;;;;;;5132780;28;20384;-80
2023/05/21 00:44:53;;;;;;;12.52;11.32;;;15.20;99.90;;;;;;5114654;28;20372;-81
2023/05/21 00:47:20;;;;;;;15.15;13.73;;;14.90;99.90;;;;;;5106544;28;20422;-80
2023/05/21 00:49:47;;;;;;;14.93;13.63;;;14.90;99.90;;;;;;5111748;28;20433;-80
2023/05/21 00:52:13;;;;;;;16.17;14.57;;;14.80;99.90;;;;;;5109816;28;20401;-81
2023/05/21 00:54:40;;;;;;;15.50;14.00;;;14.90;99.90;;;;;;5127149;28;20408;-81
2023/05/21 00:57:05;;;;;;;16.13;14.53;;;14.90;99.90;;;;;;5131039;28;20408;-80
2023/05/21 00:59:32;;;;;;;16.37;14.67;;;14.90;99.90;;;;;;5124319;28;20376;-81
2023/05/21 01:02:02;;;;;;;14.98;13.57;;;14.80;99.90;;;;;;5098589;28;20386;-81
2023/05/21 01:04:30;;;;;;;15.80;14.30;;;14.80;99.90;;;;;;5100269;28;20394;-81
2023/05/21 01:06:57;;;;;;;14.73;13.32;;;14.90;99.90;;;;;;5095205;28;20385;-81
2023/05/21 01:09:23;;;;;;;15.80;14.30;;;15.00;99.90;;;;;;5096042;28;20400;-81
2023/05/21 01:11:50;;;;;;;15.52;14.00;;;15.00;99.90;;;;;;5078153;28;20425;-81
2023/05/21 01:14:17;;;;;;;16.10;14.50;;;15.00;99.90;;;;;;5076853;28;20382;-81
2023/05/21 01:16:46;;;;;;;15.00;13.60;;;15.00;99.90;;;;;;5095507;28;20468;-81
2023/05/21 01:19:16;;;;;;;15.10;13.70;;;15.10;99.90;;;;;;5076444;28;20382;-81
2023/05/21 01:21:45;;;;;;;14.30;13.00;;;15.10;99.90;;;;;;5100756;28;20403;-80
2023/05/21 01:24:12;;;;;;;15.18;13.57;;;15.00;99.90;;;;;;5096632;28;20759;-81
2023/05/21 01:26:40;;;;;;;15.48;13.98;;;14.90;99.90;;;;;;5115134;28;20389;-80
2023/05/21 01:29:06;;;;;;;14.95;13.50;;;15.00;99.90;;;;;;5119023;28;20398;-81
2023/05/21 01:31:55;;;;;;;14.10;12.80;;;15.00;99.90;;;;;;5114897;28;20433;-81
2023/05/21 01:34:26;;;;;;;14.98;13.48;;;14.90;99.90;;;;;;5079225;28;20531;-80
2023/05/21 01:37:16;;;;;;;14.07;12.77;;;14.90;99.90;;;;;;5079624;28;20393;-81
2023/05/21 01:39:46;;;;;;;14.15;12.90;;;14.90;99.90;;;;;;5117032;28;20381;-80
2023/05/21 01:42:15;;;;;;;15.43;13.90;;;14.90;99.90;;;;;;5117105;28;20451;-80
2023/05/21 01:44:41;;;;;;;15.80;14.30;;;14.90;99.90;;;;;;5118379;28;20727;-80
2023/05/21 01:47:09;;;;;;;14.80;13.40;;;14.80;99.90;;;;;;5114968;28;20542;-80
2023/05/21 01:49:36;;;;;;;15.00;13.50;;;14.80;99.90;;;;;;5090336;28;20819;-80
2023/05/21 01:52:01;;;;;;;15.90;14.50;;;14.70;99.90;;;;;;5121281;28;20403;-80
2023/05/21 01:54:27;;;;;;;15.40;13.93;;;14.70;99.90;;;;;;5120816;28;20514;-79
2023/05/21 01:56:52;;;;;;;15.57;14.13;;;14.70;99.90;;;;;;5122093;28;20384;-79
2023/05/21 01:59:19;;;;;;;16.20;14.70;;;14.60;99.90;;;;;;5112698;28;20390;-79
2023/05/21 02:01:44;;;;;;;16.55;15.02;;;14.50;99.90;;;;;;5084236;28;20400;-79
2023/05/21 02:04:10;;;;;;;16.20;14.60;;;14.40;99.90;;;;;;5102888;28;20410;-79
2023/05/21 02:06:38;;;;;;;16.30;14.80;;;14.30;99.90;;;;;;5102579;28;20389;-80
2023/05/21 02:09:04;;;;;;;17.20;15.60;;;14.20;99.90;;;;;;5123896;28;20403;-79
2023/05/21 02:11:30;;;;;;;17.08;15.43;;;14.20;99.90;;;;;;5117932;28;20845;-80
2023/05/21 02:13:56;;;;;;;17.07;15.37;;;14.10;99.90;;;;;;5117167;28;20377;-80
2023/05/21 02:16:21;;;;;;;16.48;14.88;;;14.00;99.90;;;;;;5097393;28;20368;-80
2023/05/21 02:18:50;;;;;;;17.30;15.63;;;14.00;99.90;;;;;;5115001;28;20754;-80
2023/05/21 02:21:16;;;;;;;18.00;16.20;;;13.90;99.90;;;;;;5077977;28;20980;-80
2023/05/21 02:23:41;;;;;;;18.50;16.80;;;13.80;99.90;;;;;;5077305;28;20386;-79
2023/05/21 02:26:07;;;;;;;17.38;15.77;;;13.80;99.90;;;;;;5094916;28;20390;-80
2023/05/21 02:28:34;;;;;;;19.03;17.13;;;13.70;99.90;;;;;;5094983;28;20459;-80
2023/05/21 02:31:00;;;;;;;17.40;15.43;;;13.70;99.90;;;;;;5110832;28;20424;-80
2023/05/21 02:33:25;;;;;;;17.58;15.77;;;13.60;99.90;;;;;;5097645;28;20728;-79
2023/05/21 02:35:51;;;;;;;18.70;16.90;;;13.60;99.90;;;;;;5104422;28;21165;-80
2023/05/21 02:38:21;;;;;;;19.17;17.17;;;13.50;99.90;;;;;;5076029;28;20783;-80
2023/05/21 02:40:50;;;;;;;18.27;15.98;;;13.50;99.90;;;;;;5076547;28;20408;-80
2023/05/21 02:43:16;;;;;;;18.08;16.40;;;13.40;99.90;;;;;;5077179;28;20923;-79
2023/05/21 02:45:41;;;;;;;17.70;15.90;;;13.40;99.90;;;;;;5084456;28;20503;-79
2023/05/21 02:48:07;;;;;;;17.90;16.10;;;13.30;99.90;;;;;;5121911;28;20384;-79
2023/05/21 02:50:32;;;;;;;17.57;15.97;;;13.40;99.90;;;;;;5103425;28;20392;-79
2023/05/21 02:53:01;;;;;;;16.10;14.70;;;13.30;99.90;;;;;;5084404;28;20829;-79
2023/05/21 02:55:26;;;;;;;15.77;14.27;;;13.30;99.90;;;;;;5081824;28;20377;-79
2023/05/21 02:57:52;;;;;;;17.92;16.13;;;13.30;99.90;;;;;;5096659;28;20442;-79
2023/05/21 03:00:17;;;;;;;15.90;14.30;;;13.30;99.90;;;;;;5095225;28;20389;-79
2023/05/21 03:02:43;;;;;;;15.57;14.17;;;13.20;99.90;;;;;;5110473;28;20443;-80
2023/05/21 03:05:09;;;;;;;15.55;14.00;;;13.10;99.90;;;;;;5085445;28;20443;-79
2023/05/21 03:07:34;;;;;;;17.20;15.48;;;13.10;99.90;;;;;;5094869;28;20417;-80
2023/05/21 03:10:00;;;;;;;17.20;15.50;;;13.20;99.90;;;;;;5097422;28;20448;-79
2023/05/21 03:12:25;;;;;;;16.30;14.77;;;13.20;99.90;;;;;;5115030;28;20392;-79
2023/05/21 03:14:51;;;;;;;18.47;16.47;;;13.10;99.90;;;;;;5115148;28;20380;-79
2023/05/21 03:17:17;;;;;;;17.48;15.77;;;13.20;99.90;;;;;;5114191;28;20380;-80
2023/05/21 03:19:43;;;;;;;18.67;16.87;;;13.10;99.90;;;;;;5077739;28;20493;-79
2023/05/21 03:22:10;;;;;;;19.23;17.27;;;13.00;99.90;;;;;;5093935;28;20386;-80
2023/05/21 03:24:38;;;;;;;17.73;16.13;;;13.10;99.90;;;;;;5094334;28;20457;-79
2023/05/21 03:27:07;;;;;;;17.40;15.70;;;13.00;99.90;;;;;;5077559;28;20413;-80
2023/05/21 03:29:33;;;;;;;18.60;16.83;;;13.00;99.90;;;;;;5093815;28;20474;-80
2023/05/21 03:31:59;;;;;;;18.80;16.90;;;13.00;99.90;;;;;;5076248;28;20405;-79
2023/05/21 03:34:25;;;;;;;18.70;17.00;;;13.00;99.90;;;;;;5076037;28;20934;-79
2023/05/21 03:36:50;;;;;;;18.87;16.77;;;13.00;99.90;;;;;;5105567;28;20420;-80
2023/05/21 03:39:16;;;;;;;18.88;17.13;;;13.00;99.90;;;;;;5114394;28;20388;-79
2023/05/21 03:41:42;;;;;;;19.00;16.50;;;12.90;99.90;;;;;;5114110;28;20416;-79
2023/05/21 03:44:07;;;;;;;18.00;16.10;;;13.00;99.90;;;;;;5087501;28;20394;-80
2023/05/21 03:46:33;;;;;;;16.63;14.83;;;12.90;99.90;;;;;;5077790;28;20390;-79
2023/05/21 03:48:58;;;;;;;17.90;16.20;;;12.90;99.90;;;;;;5076524;28;20457;-79
2023/05/21 03:51:24;;;;;;;18.40;16.50;;;12.90;99.90;;;;;;5075527;28;20406;-80
2023/05/21 03:53:50;;;;;;;17.60;15.80;;;12.90;99.90;;;;;;5080331;28;20392;-79
2023/05/21 03:56:16;;;;;;;18.38;16.48;;;12.80;99.90;;;;;;5099214;28;20398;-80
2023/05/21 03:58:42;;;;;;;18.17;16.33;;;12.80;99.90;;;;;;5075541;28;20394;-80
2023/05/21 04:01:09;;;;;;;17.50;15.80;;;12.80;99.90;;;;;;5093813;28;20381;-80
2023/05/21 04:03:35;;;;;;;18.00;16.30;;;12.80;99.90;;;;;;5075123;28;20420;-79
2023/05/21 04:06:01;;;;;;;17.70;16.00;;;12.80;99.90;;;;;;5093028;28;20903;-79
2023/05/21 04:08:27;;;;;;;18.52;16.77;;;12.70;99.90;;;;;;5074617;28;20416;-79
2023/05/21 04:10:52;;;;;;;18.23;16.40;;;12.70;99.90;;;;;;5075506;28;20378;-80
2023/05/21 04:13:18;;;;;;;19.83;16.63;;;12.70;99.90;;;;;;5093211;28;20402;-80
2023/05/21 04:15:45;;;;;;;18.73;16.83;;;12.70;99.90;;;;;;5091060;28;20480;-79
2023/05/21 04:18:12;;;;;;;18.23;16.38;;;12.70;99.90;;;;;;5113746;28;20958;-80
2023/05/21 04:20:38;;;;;;;16.40;14.90;;;12.70;99.90;;;;;;5113181;28;20380;-80
2023/05/21 04:23:03;;;;;;;17.47;15.77;;;12.70;99.90;;;;;;5095633;28;20385;-80
2023/05/21 04:25:29;;;;;;;15.93;14.33;;;12.70;99.90;;;;;;5098207;28;20401;-79
2023/05/21 04:27:54;;;;;;;17.83;16.02;;;12.70;99.90;;;;;;5084366;28;20395;-80
2023/05/21 04:30:20;;;;;;;16.42;14.82;;;12.80;99.90;;;;;;5097199;22;20798;-82
2023/05/21 04:32:46;;;;;;;16.38;14.70;;;12.70;99.90;;;;;;5071283;28;20403;-82
2023/05/21 04:35:14;;;;;;;16.02;14.43;;;12.70;99.90;;;;;;5072398;28;20395;-82
2023/05/21 04:37:40;;;;;;;16.40;14.80;;;12.70;99.90;;;;;;5074567;28;20794;-80
2023/05/21 04:40:09;;;;;;;17.88;16.17;;;12.70;99.90;;;;;;5085157;28;20384;-81
2023/05/21 04:42:35;;;;;;;17.27;15.57;;;12.70;99.90;;;;;;5065433;28;20397;-81
2023/05/21 04:45:01;;;;;;;18.20;16.40;;;12.80;99.90;;;;;;5053537;28;20479;-81
2023/05/21 04:47:34;;;;;;;17.83;16.13;;;12.80;99.90;;;;;;5052574;28;20373;-81
2023/05/21 04:50:00;;;;;;;17.98;16.08;;;12.70;99.90;;;;;;5051367;28;20396;-81
2023/05/21 04:52:26;;;;;;;17.65;16.05;;;12.80;99.90;;;;;;5057557;28;20886;-81
2023/05/21 04:54:52;;;;;;;17.15;15.52;;;12.90;99.90;;;;;;5051592;28;20396;-81
2023/05/21 04:57:18;;;;;;;17.65;15.85;;;12.80;99.90;;;;;;5052121;28;20377;-81
2023/05/21 04:59:44;;;;;;;16.50;14.80;;;12.90;99.90;;;;;;5058291;28;20398;-81
2023/05/21 05:02:12;;;;;;;15.43;14.00;;;12.90;99.90;;;;;;5064805;28;20397;-81
2023/05/21 05:04:38;;;;;;;15.98;14.38;;;12.90;99.90;;;;;;5056331;28;20393;-81
2023/05/21 05:07:03;;;;;;;15.57;14.00;;;12.90;99.90;;;;;;5055879;28;20391;-81
2023/05/21 05:09:30;;;;;;;15.73;14.23;;;12.90;99.90;;;;;;5055389;28;20385;-81
2023/05/21 05:11:55;;;;;;;14.75;13.25;;;13.00;99.90;;;;;;5056202;28;20467;-81
2023/05/21 05:14:21;;;;;;;15.10;13.70;;;12.90;99.90;;;;;;5064654;28;20423;-80
2023/05/21 05:16:47;;;;;;;15.73;14.23;;;12.90;99.90;;;;;;5072978;28;20416;-79
2023/05/21 05:19:12;;;;;;;14.90;13.40;;;12.90;99.90;;;;;;5072884;28;20404;-80
2023/05/21 05:21:38;;;;;;;14.80;13.20;;;13.00;99.90;;;;;;5072983;28;20434;-82
2023/05/21 05:24:04;;;;;;;14.13;12.83;;;13.00;99.90;;;;;;5077151;28;20379;-81
2023/05/21 05:26:29;;;;;;;12.80;11.60;;;13.10;99.90;;;;;;5077526;28;20382;-80
2023/05/21 05:28:55;;;;;;;14.40;13.10;;;13.20;99.90;;;;;;5077084;28;20558;-82
2023/05/21 05:31:20;;;;;;;14.07;12.77;;;13.20;99.90;;;;;;5066368;28;20767;-82
2023/05/21 05:33:47;;;;;;;12.57;11.47;;;13.20;99.90;;;;;;5075109;28;20387;-81
2023/05/21 05:36:12;;;;;;;13.00;11.70;;;13.30;99.90;;;;;;5075379;28;20395;-81
2023/05/21 05:38:38;;;;;;;12.03;10.93;;;13.30;99.90;;;;;;5076522;28;20458;-81
2023/05/21 05:41:04;;;;;;;12.80;11.60;;;13.30;99.90;;;;;;5075405;28;20384;-82
2023/05/21 05:43:30;;;;;;;13.57;12.10;;;13.40;99.90;;;;;;5059341;28;20931;-82
2023/05/21 05:45:55;;;;;;;12.70;11.50;;;13.50;99.90;;;;;;5055751;28;20381;-82
2023/05/21 05:48:21;;;;;;;14.18;12.40;;;13.50;99.90;;;;;;5058136;28;20487;-82
2023/05/21 05:50:47;;;;;;;14.40;13.00;;;13.60;99.90;;;;;;5054518;28;20397;-82
2023/05/21 05:53:13;;;;;;;14.43;13.02;;;13.60;99.90;;;;;;5054519;28;20459;-82
2023/05/21 05:55:40;;;;;;;14.50;13.07;;;13.80;99.90;;;;;;5053911;28;20390;-82
2023/05/21 05:58:06;;;;;;;14.40;13.10;;;13.80;99.90;;;;;;5060083;28;20393;-82
2023/05/21 06:00:31;;;;;;;13.93;12.52;;;13.90;99.90;;;;;;5055530;28;20524;-82
2023/05/21 06:02:57;;;;;;;14.73;13.23;;;14.00;99.90;;;;;;5074565;28;20410;-82
2023/05/21 06:05:22;;;;;;;13.90;12.60;;;14.10;99.90;;;;;;5060195;28;20481;-81
2023/05/21 06:07:48;;;;;;;16.63;15.03;;;14.20;99.90;;;;;;5055450;28;20879;-82
2023/05/21 06:10:13;;;;;;;16.85;15.35;;;14.20;99.90;;;;;;5054772;28;20385;-82
2023/05/21 06:12:39;;;;;;;18.10;16.30;;;14.30;99.90;;;;;;5070668;28;20437;-82
2023/05/21 06:15:05;;;;;;;18.23;16.43;;;14.40;99.90;;;;;;5071239;28;20960;-82
2023/05/21 06:17:31;;;;;;;18.27;16.40;;;14.50;99.90;;;;;;5050189;28;20398;-82
2023/05/21 06:19:56;;;;;;;19.40;17.50;;;14.50;99.90;;;;;;5053571;28;20394;-82
2023/05/21 06:22:22;;;;;;;18.90;17.00;;;14.50;99.90;;;;;;5056183;28;20445;-81
2023/05/21 06:24:47;;;;;;;19.60;17.50;;;14.60;99.90;;;;;;5075230;28;20890;-82
2023/05/21 06:27:13;;;;;;;19.20;17.30;;;14.70;99.90;;;;;;5039920;28;20430;-82
2023/05/21 06:29:39;;;;;;;18.35;16.55;;;14.80;99.90;;;;;;5059318;28;20400;-82
2023/05/21 06:32:06;;;;;;;20.23;17.77;;;14.90;99.90;;;;;;5078061;28;20919;-82
2023/05/21 06:34:31;;;;;;;19.85;17.75;;;14.90;99.90;;;;;;5075411;28;20383;-82
2023/05/21 06:36:57;;;;;;;18.40;16.60;;;14.90;99.90;;;;;;5075281;28;20518;-83
2023/05/21 06:39:23;;;;;;;19.83;17.93;;;15.10;99.90;;;;;;5072543;28;20471;-83
2023/05/21 06:41:49;;;;;;;18.90;17.00;;;15.10;99.90;;;;;;5073616;28;20399;-83
2023/05/21 06:44:15;;;;;;;20.10;17.90;;;15.20;99.90;;;;;;5073545;28;20403;-83
2023/05/21 06:46:41;;;;;;;23.85;21.35;;;15.30;99.90;;;;;;5052631;28;20401;-83
2023/05/21 06:49:06;;;;;;;23.42;21.02;;;15.30;99.90;;;;;;5052012;28;20386;-83
2023/05/21 06:51:32;;;;;;;26.63;22.48;;;15.20;99.90;;;;;;5054277;28;20461;-81
2023/05/21 06:53:58;;;;;;;24.90;22.40;;;15.50;99.90;;;;;;5052099;28;20400;-80
2023/05/21 06:56:23;;;;;;;27.10;24.30;;;15.50;99.90;;;;;;5070056;28;20392;-82
2023/05/21 06:58:49;;;;;;;25.97;23.17;;;15.40;99.90;;;;;;5074102;28;20429;-82
2023/05/21 07:01:15;;;;;;;25.87;22.67;;;15.50;99.90;;;;;;5073305;28;20384;-81
2023/05/21 07:03:40;;;;;;;25.40;22.80;;;15.50;99.90;;;;;;5070175;28;20386;-80
2023/05/21 07:06:06;;;;;;;26.05;22.92;;;15.60;99.90;;;;;;5053561;28;20377;-80
2023/05/21 07:08:32;;;;;;;24.58;22.05;;;15.60;99.90;;;;;;5054517;28;20374;-82
2023/05/21 07:10:57;;;;;;;25.90;23.20;;;15.60;99.90;;;;;;5053257;28;20389;-82
2023/05/21 07:13:23;;;;;;;26.35;23.65;;;15.60;99.90;;;;;;5053205;28;20933;-81
2023/05/21 07:15:48;;;;;;;25.30;22.70;;;15.60;99.90;;;;;;5064286;28;20460;-82
2023/05/21 07:18:15;;;;;;;25.47;22.87;;;15.60;99.90;;;;;;5055457;28;20389;-81
2023/05/21 07:20:41;;;;;;;25.38;22.85;;;15.80;99.90;;;;;;5053717;28;20388;-81
2023/05/21 07:23:06;;;;;;;24.10;21.70;;;16.10;99.90;;;;;;5064044;28;20391;-85
2023/05/21 07:25:32;;;;;;;24.97;22.37;;;15.80;99.90;;;;;;5077382;28;20403;-84
2023/05/21 07:27:57;;;;;;;24.30;21.90;;;15.90;99.90;;;;;;5078810;28;20878;-83
2023/05/21 07:30:23;;;;;;;25.83;23.17;;;16.00;99.90;;;;;;5079401;28;20440;-85
2023/05/21 07:32:48;;;;;;;22.77;20.43;;;16.00;99.90;;;;;;5078531;28;20439;-85
2023/05/21 07:35:14;;;;;;;23.65;21.15;;;16.00;99.90;;;;;;5076448;28;20427;-82
2023/05/21 07:37:39;;;;;;;23.50;21.20;;;16.00;99.90;;;;;;5071801;28;20963;-85
2023/05/21 07:40:06;;;;;;;23.33;20.87;;;16.20;99.90;;;;;;5071435;28;20395;-83
2023/05/21 07:42:32;;;;;;;23.40;21.02;;;15.60;99.90;;;;;;5081346;28;20387;-83
2023/05/21 07:44:57;;;;;;;24.05;21.55;;;16.10;99.90;;;;;;5084867;28;20409;-84
2023/05/21 07:47:23;;;;;;;23.83;21.37;;;16.30;99.90;;;;;;5082624;28;20405;-84
2023/05/21 07:49:48;;;;;;;21.80;19.60;;;16.30;99.90;;;;;;5072047;28;20489;-84
2023/05/21 07:52:14;;;;;;;22.52;20.23;;;16.30;99.90;;;;;;5061980;28;20440;-83
2023/05/21 07:54:39;;;;;;;22.73;20.43;;;16.40;99.90;;;;;;5061534;28;20385;-84
2023/05/21 07:57:05;;;;;;;23.30;20.90;;;16.40;99.90;;;;;;5069478;28;20589;-84
2023/05/21 07:59:32;;;;;;;22.13;19.95;;;17.20;99.90;;;;;;5084350;28;20746;-85
2023/05/21 08:01:58;;;;;;;22.33;20.02;;;16.50;99.90;;;;;;5090603;28;20409;-84
2023/05/21 08:04:23;;;;;;;22.60;20.30;;;16.40;99.90;;;;;;5074951;28;20389;-86
2023/05/21 08:06:49;;;;;;;22.43;20.13;;;16.50;99.90;;;;;;5055759;28;20401;-85
2023/05/21 08:09:15;;;;;;;21.60;19.50;;;16.50;99.90;;;;;;5063416;28;20451;-83
2023/05/21 08:11:41;;;;;;;21.80;19.60;;;16.70;99.90;;;;;;5056171;28;20413;-83
2023/05/21 08:14:06;;;;;;;21.80;19.60;;;16.70;99.90;;;;;;5053862;28;20385;-85
2023/05/21 08:16:32;;;;;;;22.80;20.50;;;16.80;99.90;;;;;;5053175;28;20476;-84
2023/05/21 08:18:57;;;;;;;22.13;20.03;;;16.80;99.90;;;;;;5058449;28;20393;-84
2023/05/21 08:21:23;;;;;;;21.15;19.02;;;16.90;99.90;;;;;;5057694;28;20393;-84
2023/05/21 08:23:51;;;;;;;21.57;19.30;;;16.80;99.90;;;;;;5060151;28;20401;-83
2023/05/21 08:26:17;;;;;;;20.15;18.15;;;16.90;99.90;;;;;;5052990;28;20401;-83
2023/05/21 08:28:42;;;;;;;20.40;18.30;;;17.10;99.90;;;;;;5057746;28;20480;-84
2023/05/21 08:31:08;;;;;;;20.20;18.20;;;16.80;99.90;;;;;;5057823;28;20432;-83
2023/05/21 08:33:37;;;;;;;20.67;18.67;;;17.20;99.90;;;;;;5057927;28;20416;-84
2023/05/21 08:36:06;;;;;;;20.23;18.02;;;20.90;99.90;;;;;;5055174;28;20397;-85
2023/05/21 08:38:33;;;;;;;19.40;17.60;;;17.20;99.90;;;;;;5055157;28;20393;-84
2023/05/21 08:40:59;;;;;;;20.00;18.10;;;17.30;99.90;;;;;;5055492;28;20879;-84
2023/05/21 08:43:28;;;;;;;20.52;18.33;;;17.30;99.90;;;;;;5052249;28;20406;-84
2023/05/21 08:45:56;;;;;;;21.30;19.08;;;17.40;99.90;;;;;;5058421;28;20381;-84
2023/05/21 08:48:22;;;;;;;21.00;18.90;;;17.50;99.90;;;;;;5054030;28;20846;-84
2023/05/21 08:50:51;;;;;;;21.50;19.30;;;17.50;99.90;;;;;;5053176;28;20389;-84
2023/05/21 08:53:16;;;;;;;21.58;19.38;;;17.60;99.90;;;;;;5056588;28;20574;-86
2023/05/21 08:55:42;;;;;;;19.45;17.55;;;17.70;99.90;;;;;;5056250;28;20420;-84
2023/05/21 08:58:09;;;;;;;20.70;18.67;;;16.90;99.90;;;;;;5055710;28;20450;-85
2023/05/21 09:00:35;;;;;;;20.15;18.23;;;17.80;99.90;;;;;;5066058;28;20381;-84
2023/05/21 09:03:06;;;;;;;20.40;18.40;;;17.90;99.90;;;;;;5078031;28;20396;-86
2023/05/21 09:05:37;;;;;;;19.88;17.88;;;17.90;99.90;;;;;;5062506;28;20406;-86
2023/05/21 09:08:09;;;;;;;20.13;18.23;;;18.00;99.90;;;;;;5057716;28;20390;-86
2023/05/21 09:10:38;;;;;;;21.10;18.98;;;18.10;99.90;;;;;;5067339;28;20404;-85
2023/05/21 09:13:04;;;;;;;20.30;18.20;;;18.10;99.90;;;;;;5055812;28;20465;-86
2023/05/21 09:15:30;;;;;;;20.33;18.23;;;18.40;99.90;;;;;;5053512;28;20389;-85
2023/05/21 09:17:56;;;;;;;20.13;18.20;;;18.50;99.90;;;;;;5046826;28;20387;-86
2023/05/21 09:20:26;;;;;;;20.10;18.00;;;18.40;99.90;;;;;;5057424;28;20488;-83
2023/05/21 09:22:52;;;;;;;20.05;17.90;;;18.60;99.90;;;;;;5070167;28;20876;-84
2023/05/21 09:25:23;;;;;;;20.60;18.40;;;18.60;99.90;;;;;;5066713;28;20405;-84
2023/05/21 09:27:49;;;;;;;20.07;18.00;;;18.60;99.90;;;;;;5069157;28;20396;-84
2023/05/21 09:30:16;;;;;;;21.40;19.30;;;18.60;99.90;;;;;;5070736;28;20445;-82
2023/05/21 09:32:43;;;;;;;20.10;18.20;;;20.40;99.90;;;;;;5060578;28;20409;-86
2023/05/21 09:35:13;;;;;;;20.52;18.52;;;19.10;99.90;;;;;;5058516;28;20389;-85
2023/05/21 09:37:43;;;;;;;19.35;17.45;;;18.90;99.90;;;;;;5075447;28;20388;-86
2023/05/21 09:40:20;;;;;;;20.40;18.20;;;19.20;99.90;;;;;;5075267;28;20379;-84
2023/05/21 09:42:46;;;;;;;19.90;18.00;;;19.20;99.90;;;;;;5075215;28;20391;-86
2023/05/21 09:45:17;;;;;;;20.17;18.17;;;19.40;99.90;;;;;;5075367;28;20387;-86
2023/05/21 09:47:43;;;;;;;20.80;18.67;;;19.40;99.90;;;;;;5057265;28;20407;-86
2023/05/21 09:50:27;;;;;;;20.45;18.45;;;20.30;99.90;;;;;;5060065;28;20493;-84
2023/05/21 09:52:54;;;;;;;20.02;18.10;;;19.70;99.90;;;;;;5064494;28;20455;-86
2023/05/21 09:55:25;;;;;;;19.98;17.95;;;19.80;99.90;;;;;;5062905;28;20419;-86
2023/05/21 09:57:52;;;;;;;19.25;17.35;;;19.80;99.90;;;;;;5060303;28;20395;-86
2023/05/21 10:00:23;;;;;;;20.60;18.50;;;19.80;99.90;;;;;;5057973;28;20384;-86
2023/05/21 10:02:53;;;;;;;19.23;17.40;;;19.90;99.90;;;;;;5068634;28;20425;-85
2023/05/21 10:05:19;;;;;;;19.20;17.30;;;19.90;99.90;;;;;;5058973;28;20409;-84
2023/05/21 10:07:53;;;;;;;19.50;17.50;;;20.00;99.90;;;;;;5059069;28;20397;-84
2023/05/21 10:10:23;;;;;;;20.15;18.05;;;19.90;99.90;;;;;;5056954;28;20397;-86
2023/05/21 10:12:58;;;;;;;19.13;17.23;;;19.90;99.90;;;;;;5058315;28;20397;-85
2023/05/21 10:15:26;;;;;;;19.35;17.45;;;20.10;99.90;;;;;;5058209;28;20435;-83
2023/05/21 10:17:54;;;;;;;18.45;16.65;;;20.50;99.90;;;;;;5076107;28;20608;-85
2023/05/21 10:20:21;;;;;;;19.65;17.67;;;20.30;99.90;;;;;;5077836;28;20384;-85
2023/05/21 10:22:47;;;;;;;18.95;17.15;;;20.20;99.90;;;;;;5058902;28;20922;-83
2023/05/21 10:25:13;;;;;;;18.63;16.80;;;20.10;99.90;;;;;;5060225;28;20404;-83
2023/05/21 10:27:38;;;;;;;18.70;16.90;;;20.30;99.90;;;;;;5060530;28;20389;-85
2023/05/21 10:30:05;;;;;;;18.63;16.92;;;20.50;99.90;;;;;;5058900;28;20484;-83
2023/05/21 10:32:31;;;;;;;19.40;17.40;;;20.50;93.20;;;;;;5061733;28;20409;-86
2023/05/21 10:34:58;;;;;;;18.90;17.10;;;20.30;84.50;;;;;;5060463;28;20427;-84
2023/05/21 10:37:26;;;;;;;18.92;17.13;;;20.50;93.30;;;;;;5061135;28;20401;-84
2023/05/21 10:39:55;;;;;;;18.52;16.55;;;20.50;99.90;;;;;;5060915;28;20389;-84
2023/05/21 10:42:30;;;;;;;17.90;16.00;;;20.70;94.70;;;;;;5060213;28;20469;-84
2023/05/21 10:45:11;;;;;;;18.08;16.27;;;20.90;82.80;;;;;;5061590;28;20401;-85
2023/05/21 10:48:07;;;;;;;17.52;15.63;;;21.10;58.30;;;;;;5054083;28;20485;-84
2023/05/21 10:50:43;;;;;;;19.10;17.30;;;21.10;50.40;;;;;;5053646;28;20947;-85
2023/05/21 10:53:30;;;;;;;17.90;16.20;;;21.20;50.70;;;;;;5054672;28;20934;-83
2023/05/21 10:56:24;;;;;;;18.42;16.83;;;21.20;59.40;;;;;;5060192;28;20463;-83
2023/05/21 10:59:02;;;;;;;17.90;16.10;;;21.20;56.00;;;;;;5052533;28;20386;-84
2023/05/21 11:01:32;;;;;;;18.08;16.27;;;21.30;55.90;;;;;;5069216;28;20398;-84
2023/05/21 11:03:58;;;;;;;17.00;15.50;;;21.30;45.20;;;;;;5072806;28;20412;-83
2023/05/21 11:06:27;;;;;;;17.00;15.50;;;21.50;38.90;;;;;;5058320;28;20385;-82
2023/05/21 11:08:52;;;;;;;17.27;15.68;;;21.80;51.40;;;;;;5055114;28;20378;-83
2023/05/21 11:11:43;;;;;;;17.92;16.30;;;22.00;49.00;;;;;;5050432;28;20406;-83
2023/05/21 11:14:30;;;;;;;16.88;15.27;;;22.20;42.30;;;;;;5057016;28;20491;-84
2023/05/21 11:16:57;;;;;;;17.80;16.10;;;22.40;46.30;;;;;;5053113;28;20476;-83
2023/05/21 11:19:33;;;;;;;18.40;16.60;;;22.60;28.50;;;;;;5069377;28;20449;-83
2023/05/21 11:21:58;;;;;;;17.92;16.33;;;22.70;29.30;;;;;;5053228;28;20387;-83
2023/05/21 11:24:26;;;;;;;18.00;16.30;;;23.00;27.40;;;;;;5050951;28;20408;-84
2023/05/21 11:26:57;;;;;;;19.80;18.00;;;22.80;18.20;;;;;;5054358;28;20389;-82
2023/05/21 11:29:39;;;;;;;19.45;16.83;;;22.90;17.90;;;;;;5053926;28;20912;-83
2023/05/21 11:32:07;;;;;;;17.63;16.03;;;23.10;25.10;;;;;;5055292;28;20903;-83
2023/05/21 11:34:46;;;;;;;16.60;14.90;;;23.70;17.90;;;;;;5055770;28;20914;-84
2023/05/21 11:37:25;;;;;;;16.52;15.02;;;24.60;6.80;;;;;;5055034;28;20388;-84
2023/05/21 11:39:51;;;;;;;16.20;14.70;;;24.20;1.00;;;;;;5054478;28;20458;-85
2023/05/21 11:42:38;;;;;;;16.83;15.25;;;24.60;1.70;;;;;;5086088;28;20419;-85
2023/05/21 11:45:04;;;;;;;15.07;13.77;;;25.00;1.00;;;;;;5060384;28;20384;-84
2023/05/21 11:47:31;;;;;;;15.68;14.23;;;25.90;1.00;;;;;;5057793;28;20972;-85
2023/05/21 11:49:59;;;;;;;15.23;13.93;;;25.00;1.00;;;;;;5058495;28;20393;-85
2023/05/21 11:52:27;;;;;;;15.93;14.43;;;25.60;1.00;;;;;;5058220;28;20419;-84
2023/05/21 11:54:56;;;;;;;14.90;13.50;;;25.30;1.00;;;;;;5057837;28;20382;-84
2023/05/21 11:57:28;;;;;;;16.90;15.50;;;25.90;1.00;;;;;;5057503;28;20390;-85
2023/05/21 11:59:53;;;;;;;15.10;13.70;;;25.40;1.00;;;;;;5078424;28;20394;-84
2023/05/21 12:02:21;;;;;;;16.10;14.77;;;26.00;1.00;;;;;;5069157;28;20457;-84
2023/05/21 12:04:48;;;;;;;17.23;15.82;;;26.30;1.00;;;;;;5053929;28;20783;-84
2023/05/21 12:07:18;;;;;;;15.57;14.27;;;25.80;1.00;;;;;;5056192;28;20798;-86
2023/05/21 12:09:48;;;;;;;14.85;13.63;;;26.50;1.00;;;;;;5055650;28;20385;-85
2023/05/21 12:12:17;;;;;;;16.70;15.10;;;26.70;1.00;;;;;;5057198;28;20419;-84
2023/05/21 12:14:48;;;;;;;16.00;14.60;;;26.20;1.00;;;;;;5055794;28;20424;-86
2023/05/21 12:17:21;;;;;;;16.20;14.70;;;26.30;1.00;;;;;;5055395;28;20441;-85
2023/05/21 12:19:48;;;;;;;16.33;14.93;;;26.00;1.00;;;;;;5057159;28;20775;-84
2023/05/21 12:22:15;;;;;;;16.50;15.00;;;25.60;1.00;;;;;;5075872;28;20408;-84
2023/05/21 12:24:42;;;;;;;16.15;14.57;;;25.70;1.00;;;;;;5074245;28;20954;-85
2023/05/21 12:27:09;;;;;;;15.00;13.70;;;26.30;1.00;;;;;;5073247;28;20388;-84
2023/05/21 12:29:44;;;;;;;15.52;14.20;;;26.00;1.00;;;;;;5075292;28;20414;-84